Time;durP1;ratioP1;P1;durP2;ratioP2;P2;SDS_P1;SDS_P2;PMS_P1;PMS_P2;Temp;Humidity;BMP_temperature;BMP_pressure;BME280_temperature;BME280_humidity;BME280_pressure;Samples;Min_cycle;Max_cycle;Signal;HPM_P1;HPM_P2
2022/04/21 00:00:20;;;;;;;35.47;24.83;;;12.50;61.00;;;;;;5081529;28;20476;-59
2022/04/21 00:02:45;;;;;;;37.92;27.02;;;12.50;61.70;;;;;;5081249;28;20012;-59
2022/04/21 00:05:13;;;;;;;39.28;27.05;;;12.40;60.30;;;;;;5081192;28;20047;-59
2022/04/21 00:07:39;;;;;;;34.00;23.30;;;12.30;60.40;;;;;;5081333;28;20472;-59
2022/04/21 00:10:06;;;;;;;33.08;23.23;;;12.30;61.70;;;;;;5081285;28;20033;-60
2022/04/21 00:12:33;;;;;;;35.13;24.60;;;12.20;61.70;;;;;;5081095;28;20024;-59
2022/04/21 00:15:00;;;;;;;36.80;26.63;;;12.10;62.60;;;;;;5081185;28;20028;-59
2022/04/21 00:17:26;;;;;;;35.50;25.95;;;12.00;61.90;;;;;;5080969;28;20153;-60
2022/04/21 00:19:52;;;;;;;36.72;25.27;;;12.00;62.70;;;;;;5080822;28;20066;-59
2022/04/21 00:25:03;;;;;;;39.15;27.27;;;11.90;62.70;;;;;;5081149;28;20035;-59
2022/04/21 00:27:29;;;;;;;34.45;24.67;;;11.90;61.80;;;;;;5080691;28;20073;-59
2022/04/21 00:29:56;;;;;;;31.90;23.95;;;11.80;63.40;;;;;;5080665;28;20025;-59
2022/04/21 00:32:22;;;;;;;35.75;24.45;;;11.80;63.20;;;;;;5081136;28;20052;-59
2022/04/21 00:34:47;;;;;;;33.88;24.42;;;11.70;62.70;;;;;;5080620;28;20666;-59
2022/04/21 00:37:13;;;;;;;33.60;23.70;;;11.70;62.90;;;;;;5080833;28;20031;-59
2022/04/21 00:39:39;;;;;;;38.58;26.40;;;11.60;63.60;;;;;;5080471;28;20040;-59
2022/04/21 00:42:05;;;;;;;35.40;24.75;;;11.50;64.10;;;;;;5080604;28;20377;-59
2022/04/21 00:44:31;;;;;;;35.13;24.08;;;11.50;64.30;;;;;;5080652;28;20141;-60
2022/04/21 00:47:01;;;;;;;38.92;26.25;;;11.40;63.40;;;;;;5079624;28;20020;-59
2022/04/21 00:49:30;;;;;;;37.10;26.00;;;11.30;66.10;;;;;;5080423;28;20025;-59
2022/04/21 00:51:58;;;;;;;37.38;26.05;;;11.30;66.20;;;;;;5080344;28;20044;-59
2022/04/21 00:54:24;;;;;;;36.13;25.40;;;11.20;66.30;;;;;;5080515;28;20029;-59
2022/04/21 00:56:50;;;;;;;35.78;25.17;;;11.20;63.90;;;;;;5080513;28;20056;-59
2022/04/21 00:59:16;;;;;;;34.13;24.08;;;11.20;64.10;;;;;;5080113;28;20032;-59
2022/04/21 01:04:27;;;;;;;35.85;24.90;;;11.20;62.10;;;;;;5080368;28;20511;-59
2022/04/21 01:06:54;;;;;;;37.85;25.92;;;11.10;64.20;;;;;;5080256;28;20036;-59
2022/04/21 01:09:20;;;;;;;33.05;23.80;;;11.00;63.10;;;;;;5080060;28;20214;-59
2022/04/21 01:11:47;;;;;;;39.00;26.58;;;11.00;64.10;;;;;;5080110;28;20032;-59
2022/04/21 01:14:16;;;;;;;36.78;23.92;;;11.00;63.00;;;;;;5079860;28;20051;-59
2022/04/21 01:16:42;;;;;;;34.28;24.02;;;10.90;63.50;;;;;;5080174;28;20472;-59
2022/04/21 01:19:08;;;;;;;38.03;25.67;;;10.90;64.00;;;;;;5079690;28;20035;-59
2022/04/21 01:21:34;;;;;;;36.67;23.73;;;10.90;63.20;;;;;;5079583;28;20028;-59
2022/04/21 01:24:01;;;;;;;36.03;25.27;;;10.90;62.80;;;;;;5079706;28;20030;-59
2022/04/21 01:26:29;;;;;;;35.45;25.55;;;10.80;63.70;;;;;;5079606;28;20103;-60
2022/04/21 01:28:55;;;;;;;39.45;26.70;;;10.80;63.50;;;;;;5079613;28;20020;-59
2022/04/21 01:31:24;;;;;;;38.33;25.35;;;10.80;63.40;;;;;;5079747;28;20025;-59
2022/04/21 01:33:50;;;;;;;40.53;28.00;;;10.80;64.10;;;;;;5079712;28;20053;-59
2022/04/21 01:36:17;;;;;;;36.33;24.92;;;10.80;62.40;;;;;;5079509;28;20518;-59
2022/04/21 01:41:27;;;;;;;36.65;23.65;;;10.70;63.70;;;;;;5079677;28;20499;-59
2022/04/21 01:43:53;;;;;;;33.17;23.77;;;10.70;62.50;;;;;;5079407;28;20032;-59
2022/04/21 01:46:19;;;;;;;35.75;24.13;;;10.60;62.90;;;;;;5079263;28;20020;-59
2022/04/21 01:48:45;;;;;;;35.80;25.42;;;10.60;65.60;;;;;;5079232;28;20447;-59
2022/04/21 01:51:11;;;;;;;36.13;25.20;;;10.60;65.10;;;;;;5079373;28;20112;-59
2022/04/21 01:53:36;;;;;;;42.33;29.10;;;10.60;66.30;;;;;;5079597;28;20514;-59
2022/04/21 01:56:02;;;;;;;38.85;24.92;;;10.60;63.50;;;;;;5079061;28;20111;-59
2022/04/21 01:58:28;;;;;;;38.72;26.23;;;10.60;64.20;;;;;;5079142;28;20029;-59
2022/04/21 02:00:54;;;;;;;38.88;26.67;;;10.60;67.50;;;;;;5078976;28;20081;-59
2022/04/21 02:03:20;;;;;;;39.97;27.27;;;10.60;65.80;;;;;;5079115;28;20032;-59
2022/04/21 02:05:45;;;;;;;37.63;25.80;;;10.60;63.40;;;;;;5078842;28;20028;-59
2022/04/21 02:08:12;;;;;;;37.45;26.58;;;10.60;63.80;;;;;;5078799;28;20020;-59
2022/04/21 02:10:38;;;;;;;39.33;25.48;;;10.60;64.00;;;;;;5078782;28;20028;-59
2022/04/21 02:13:04;;;;;;;44.22;28.92;;;10.50;64.00;;;;;;5078536;28;20024;-59
2022/04/21 02:15:30;;;;;;;41.60;25.80;;;10.50;63.70;;;;;;5078713;28;20034;-59
2022/04/21 02:17:56;;;;;;;40.70;27.00;;;10.50;64.10;;;;;;5078590;28;20031;-59
2022/04/21 02:20:22;;;;;;;39.60;27.50;;;10.50;65.70;;;;;;5078509;28;20111;-59
2022/04/21 02:22:48;;;;;;;36.55;25.48;;;10.50;62.70;;;;;;5078659;28;20024;-59
2022/04/21 02:25:15;;;;;;;44.30;28.67;;;10.50;64.40;;;;;;5078728;28;20021;-59
2022/04/21 02:27:43;;;;;;;35.63;24.95;;;10.40;64.40;;;;;;5078194;28;20037;-59
2022/04/21 02:30:10;;;;;;;38.60;25.55;;;10.40;65.00;;;;;;5078637;28;20415;-59
2022/04/21 02:32:36;;;;;;;43.38;28.17;;;10.40;66.00;;;;;;5078322;28;20020;-59
2022/04/21 02:35:03;;;;;;;40.25;26.98;;;10.40;64.90;;;;;;5078300;28;20028;-59
2022/04/21 02:37:35;;;;;;;41.53;28.65;;;10.40;65.40;;;;;;5078285;28;20504;-59
2022/04/21 02:40:01;;;;;;;40.38;26.35;;;10.40;64.30;;;;;;5078310;28;20031;-59
2022/04/21 02:42:26;;;;;;;43.60;28.70;;;10.40;65.60;;;;;;5078148;28;20443;-59
2022/04/21 02:44:52;;;;;;;36.05;26.05;;;10.40;64.70;;;;;;5078402;28;20055;-59
2022/04/21 02:47:18;;;;;;;40.72;27.92;;;10.30;66.00;;;;;;5078108;28;20059;-59
2022/04/21 02:49:46;;;;;;;46.35;30.77;;;10.40;64.40;;;;;;5078172;28;20040;-59
2022/04/21 02:52:13;;;;;;;43.65;27.70;;;10.30;63.40;;;;;;5078244;28;20061;-59
2022/04/21 02:57:26;;;;;;;37.97;25.48;;;10.20;65.70;;;;;;5078675;28;20043;-59
2022/04/21 02:59:56;;;;;;;41.30;28.70;;;10.20;66.90;;;;;;5078072;28;20073;-59
2022/04/21 03:02:22;;;;;;;46.70;31.10;;;10.20;63.70;;;;;;5078096;28;20021;-59
2022/04/21 03:04:49;;;;;;;43.08;27.30;;;10.10;63.30;;;;;;5077886;28;20028;-59
2022/04/21 03:07:17;;;;;;;38.72;26.88;;;10.10;65.50;;;;;;5078081;28;20029;-59
2022/04/21 03:09:43;;;;;;;40.90;26.80;;;10.00;66.20;;;;;;5077235;28;20048;-59
2022/04/21 03:12:10;;;;;;;43.55;28.05;;;10.00;65.60;;;;;;5077796;28;20035;-59
2022/04/21 03:14:36;;;;;;;42.08;28.83;;;10.00;65.00;;;;;;5078013;28;20024;-59
2022/04/21 03:17:06;;;;;;;43.00;28.13;;;9.90;65.40;;;;;;5077740;28;20480;-59
2022/04/21 03:19:32;;;;;;;40.42;27.42;;;9.90;65.80;;;;;;5077927;28;20484;-59
2022/04/21 03:24:42;;;;;;;36.88;26.08;;;9.80;64.40;;;;;;5078176;28;20047;-58
2022/04/21 03:27:08;;;;;;;41.03;27.70;;;9.80;66.70;;;;;;5077601;28;20041;-59
2022/04/21 03:29:37;;;;;;;35.75;24.23;;;9.70;64.80;;;;;;5077835;28;20016;-59
2022/04/21 03:32:11;;;;;;;38.75;26.70;;;9.70;65.90;;;;;;5077414;28;20028;-59
2022/04/21 03:34:41;;;;;;;40.15;27.13;;;9.70;65.30;;;;;;5077625;28;20024;-59
2022/04/21 03:37:13;;;;;;;39.97;25.80;;;9.60;65.90;;;;;;5077766;28;20043;-59
2022/04/21 03:39:39;;;;;;;36.72;26.02;;;9.60;65.50;;;;;;5077524;28;20066;-59
2022/04/21 03:42:07;;;;;;;38.80;25.65;;;9.50;67.10;;;;;;5077538;28;20488;-59
2022/04/21 03:44:34;;;;;;;37.90;24.95;;;9.50;67.50;;;;;;5077285;28;20500;-59
2022/04/21 03:47:00;;;;;;;36.75;25.92;;;9.50;66.60;;;;;;5077454;28;20021;-59
2022/04/21 03:49:27;;;;;;;37.50;26.67;;;9.50;66.70;;;;;;5076006;28;20023;-59
2022/04/21 03:51:53;;;;;;;37.42;25.90;;;9.40;65.50;;;;;;5077499;28;20089;-59
2022/04/21 03:54:19;;;;;;;36.17;25.20;;;9.40;68.10;;;;;;5077372;28;20445;-59
2022/04/21 03:56:44;;;;;;;33.25;23.95;;;9.40;66.80;;;;;;5077144;28;20404;-59
2022/04/21 03:59:10;;;;;;;36.03;24.75;;;9.40;66.00;;;;;;5077437;28;20028;-59
2022/04/21 04:01:36;;;;;;;34.95;23.75;;;9.30;67.90;;;;;;5077473;28;20097;-59
2022/04/21 04:04:02;;;;;;;33.35;23.27;;;9.30;67.20;;;;;;5077290;28;20027;-59
2022/04/21 04:11:56;;;;;;;33.93;22.27;;;9.30;66.60;;;;;;5077098;28;20093;-59
2022/04/21 04:14:21;;;;;;;31.63;22.13;;;9.20;67.40;;;;;;5077161;28;20100;-59
2022/04/21 04:16:47;;;;;;;34.80;24.10;;;9.20;68.60;;;;;;5077225;28;20035;-59
2022/04/21 04:19:13;;;;;;;30.40;21.77;;;9.20;66.20;;;;;;5077031;28;20119;-59
2022/04/21 04:21:39;;;;;;;31.92;21.55;;;9.20;69.00;;;;;;5079735;28;20027;-59
2022/04/21 04:24:05;;;;;;;30.48;21.70;;;9.10;68.80;;;;;;5080947;28;20423;-58
2022/04/21 04:26:34;;;;;;;31.10;21.70;;;9.10;68.90;;;;;;5080793;28;20036;-58
2022/04/21 04:29:03;;;;;;;31.23;21.90;;;9.10;67.30;;;;;;5080546;28;20025;-59
2022/04/21 04:31:28;;;;;;;34.00;23.92;;;9.10;68.90;;;;;;5080913;28;20033;-59
2022/04/21 04:33:54;;;;;;;34.00;23.20;;;9.10;67.10;;;;;;5080720;28;20035;-59
2022/04/21 04:36:22;;;;;;;33.20;23.58;;;9.10;66.90;;;;;;5080841;28;20040;-59
2022/04/21 04:38:48;;;;;;;33.97;24.45;;;9.10;68.20;;;;;;5080572;28;20039;-59
2022/04/21 04:44:02;;;;;;;33.42;23.55;;;9.10;66.60;;;;;;5080514;28;20392;-59
2022/04/21 04:46:37;;;;;;;31.38;22.13;;;9.10;68.10;;;;;;5080646;28;20028;-59
2022/04/21 04:49:12;;;;;;;33.25;23.27;;;9.10;69.20;;;;;;5080486;28;20029;-59
2022/04/21 04:51:43;;;;;;;30.50;22.05;;;9.10;67.60;;;;;;5080161;28;20036;-59
2022/04/21 04:54:10;;;;;;;33.80;23.05;;;9.10;70.80;;;;;;5080571;28;20025;-59
2022/04/21 04:56:38;;;;;;;34.10;23.65;;;9.20;68.40;;;;;;5080084;28;20495;-59
2022/04/21 04:59:04;;;;;;;33.80;23.92;;;9.10;67.30;;;;;;5080374;28;20047;-58
2022/04/21 05:01:32;;;;;;;33.60;23.55;;;9.10;66.80;;;;;;5079846;28;20077;-59
2022/04/21 05:04:05;;;;;;;34.53;23.42;;;9.10;67.60;;;;;;5080315;28;20023;-59
2022/04/21 05:06:40;;;;;;;32.85;22.83;;;9.10;68.80;;;;;;5080545;28;20027;-59
2022/04/21 05:09:06;;;;;;;;;;;9.10;69.90;;;;;;5080528;28;20077;-59
2022/04/21 05:11:33;;;;;;;33.95;23.33;;;9.10;67.20;;;;;;5080000;28;20368;-58
2022/04/21 05:14:00;;;;;;;34.03;23.27;;;9.00;67.00;;;;;;5079797;28;20159;-59
2022/04/21 05:16:27;;;;;;;31.75;21.98;;;9.00;70.40;;;;;;5079945;28;20392;-59
2022/04/21 05:18:53;;;;;;;33.05;22.48;;;9.00;69.20;;;;;;5079864;28;20050;-59
2022/04/21 05:21:19;;;;;;;32.53;23.05;;;9.00;68.90;;;;;;5079776;28;20029;-58
2022/04/21 05:23:47;;;;;;;33.50;24.20;;;8.90;69.90;;;;;;5079780;28;20025;-59
2022/04/21 05:26:15;;;;;;;33.90;23.77;;;9.00;67.40;;;;;;5079914;28;20435;-59
2022/04/21 05:28:42;;;;;;;30.50;20.77;;;9.00;68.80;;;;;;5080160;28;20079;-59
2022/04/21 05:31:09;;;;;;;31.60;23.05;;;9.00;69.90;;;;;;5079488;28;20027;-59
2022/04/21 05:33:37;;;;;;;31.77;22.15;;;9.00;70.20;;;;;;5079410;28;20032;-59
2022/04/21 05:36:03;;;;;;;32.63;22.90;;;9.00;69.00;;;;;;5079762;28;20025;-59
2022/04/21 05:38:29;;;;;;;31.25;23.05;;;9.00;69.80;;;;;;5079310;28;20538;-59
2022/04/21 05:40:55;;;;;;;30.38;21.60;;;9.00;68.90;;;;;;5079579;28;20021;-58
2022/04/21 05:43:25;;;;;;;34.42;23.63;;;9.00;69.80;;;;;;5079424;28;20025;-59
2022/04/21 05:45:51;;;;;;;35.55;24.15;;;9.00;70.00;;;;;;5078043;28;20051;-59
2022/04/21 05:48:17;;;;;;;31.73;22.92;;;9.00;69.10;;;;;;5079355;28;20034;-59
2022/04/21 05:50:44;;;;;;;31.42;21.42;;;9.00;71.10;;;;;;5079407;28;20380;-59
2022/04/21 05:53:17;;;;;;;33.10;23.73;;;9.00;71.00;;;;;;5079268;28;20222;-59
2022/04/21 05:55:43;;;;;;;31.08;21.95;;;9.00;69.90;;;;;;5079647;28;20032;-59
2022/04/21 05:58:09;;;;;;;33.58;23.48;;;9.10;69.50;;;;;;5078985;28;20084;-59
2022/04/21 06:00:35;;;;;;;30.58;21.88;;;9.10;69.70;;;;;;5079453;28;20470;-59
2022/04/21 06:03:01;;;;;;;32.13;21.77;;;9.10;69.50;;;;;;5077805;28;20483;-59
2022/04/21 06:05:27;;;;;;;30.88;22.38;;;9.10;71.40;;;;;;5079151;28;20013;-59
2022/04/21 06:07:53;;;;;;;32.70;22.80;;;9.10;70.50;;;;;;5079043;28;20491;-58
2022/04/21 06:10:19;;;;;;;29.73;21.30;;;9.10;69.60;;;;;;5079035;28;20028;-59
2022/04/21 06:12:44;;;;;;;29.88;22.15;;;9.20;71.20;;;;;;5078619;28;20021;-59
2022/04/21 06:15:10;;;;;;;30.85;21.15;;;9.20;70.90;;;;;;5078163;28;20392;-59
2022/04/21 06:17:36;;;;;;;33.22;23.52;;;9.20;70.60;;;;;;5078297;28;20439;-59
2022/04/21 06:20:02;;;;;;;29.88;20.80;;;9.30;70.00;;;;;;5077746;28;20165;-59
2022/04/21 06:22:28;;;;;;;28.92;21.13;;;9.30;71.80;;;;;;5078016;28;20052;-59
2022/04/21 06:24:53;;;;;;;31.13;21.52;;;9.40;70.10;;;;;;5078215;28;20027;-59
2022/04/21 06:27:19;;;;;;;28.52;21.13;;;9.50;70.10;;;;;;5078074;28;20451;-59
2022/04/21 06:29:46;;;;;;;27.08;21.08;;;9.50;70.80;;;;;;5077645;28;20024;-59
2022/04/21 06:32:11;;;;;;;25.48;18.92;;;9.60;70.10;;;;;;5078002;28;20032;-59
2022/04/21 06:34:37;;;;;;;29.48;21.67;;;9.70;71.30;;;;;;5078081;28;20032;-59
2022/04/21 06:37:03;;;;;;;26.98;19.98;;;9.80;70.10;;;;;;5077611;28;20038;-59
2022/04/21 06:39:29;;;;;;;27.42;20.02;;;9.90;72.40;;;;;;5077193;28;20029;-59
2022/04/21 06:41:55;;;;;;;24.70;19.42;;;10.00;74.10;;;;;;5077648;28;20472;-59
2022/04/21 06:49:49;;;;;;;28.45;21.33;;;10.30;72.50;;;;;;5077458;28;20507;-59
2022/04/21 06:52:15;;;;;;;25.13;19.23;;;10.40;70.70;;;;;;5077561;28;20024;-59
2022/04/21 06:54:41;;;;;;;27.58;20.17;;;10.40;72.30;;;;;;5077524;28;20035;-59
2022/04/21 06:57:07;;;;;;;28.08;20.50;;;10.50;69.90;;;;;;5077356;28;20040;-59
2022/04/21 06:59:33;;;;;;;29.92;20.65;;;10.60;69.20;;;;;;5077331;28;20202;-60
2022/04/21 07:01:58;;;;;;;27.88;20.58;;;10.70;69.40;;;;;;5077529;28;20020;-59
2022/04/21 07:04:25;;;;;;;27.88;21.00;;;10.70;69.50;;;;;;5076525;28;20019;-60
2022/04/21 07:06:51;;;;;;;28.20;21.17;;;10.70;69.10;;;;;;5075867;28;20021;-59
2022/04/21 07:09:16;;;;;;;27.77;20.15;;;10.70;70.50;;;;;;5077737;28;20439;-60
2022/04/21 07:11:43;;;;;;;25.35;19.45;;;10.70;70.40;;;;;;5077904;28;20055;-59
2022/04/21 07:14:10;;;;;;;24.33;18.58;;;10.70;70.70;;;;;;5077804;28;20028;-59
2022/04/21 07:16:35;;;;;;;26.05;20.63;;;10.70;71.00;;;;;;5077862;28;20115;-59
2022/04/21 07:19:01;;;;;;;26.15;19.48;;;10.70;71.60;;;;;;5076663;28;20064;-59
2022/04/21 07:21:27;;;;;;;29.85;21.20;;;10.80;71.00;;;;;;5075684;28;20017;-59
2022/04/21 07:23:53;;;;;;;28.02;20.20;;;10.80;69.60;;;;;;5075859;28;20021;-59
2022/04/21 07:26:20;;;;;;;24.85;19.58;;;10.70;70.40;;;;;;5075447;28;20063;-59
2022/04/21 07:28:45;;;;;;;25.50;19.30;;;10.80;70.20;;;;;;5076073;28;20097;-59
2022/04/21 07:31:12;;;;;;;26.23;20.45;;;10.80;70.00;;;;;;5076110;28;20024;-59
2022/04/21 07:33:37;;;;;;;24.98;18.33;;;10.80;69.60;;;;;;5076281;28;20041;-59
2022/04/21 07:36:03;;;;;;;27.90;21.02;;;10.90;70.00;;;;;;5076273;28;20032;-59
2022/04/21 07:38:31;;;;;;;26.48;19.58;;;11.00;68.60;;;;;;5077853;28;20109;-59
2022/04/21 07:40:57;;;;;;;25.85;19.25;;;11.00;69.50;;;;;;5077416;28;20016;-59
2022/04/21 07:43:23;;;;;;;25.30;19.70;;;11.00;69.00;;;;;;5077500;28;20028;-59
2022/04/21 07:45:49;;;;;;;26.55;19.75;;;11.10;69.20;;;;;;5077497;28;20099;-59
2022/04/21 07:48:15;;;;;;;24.73;19.10;;;11.20;70.70;;;;;;5076564;28;20067;-59
2022/04/21 07:50:41;;;;;;;26.55;18.65;;;11.30;70.70;;;;;;5077490;28;20029;-59
2022/04/21 07:53:13;;;;;;;26.52;19.77;;;11.40;72.10;;;;;;5077415;28;20425;-59
2022/04/21 07:55:40;;;;;;;27.00;20.38;;;11.50;72.40;;;;;;5080073;28;20381;-59
2022/04/21 07:58:06;;;;;;;27.30;20.52;;;11.60;69.10;;;;;;5081496;28;20025;-59
2022/04/21 08:00:36;;;;;;;26.63;19.63;;;11.60;71.00;;;;;;5081676;28;20013;-60
2022/04/21 08:03:03;;;;;;;26.40;19.98;;;11.70;70.30;;;;;;5081246;28;20028;-60
2022/04/21 08:05:29;;;;;;;28.10;20.88;;;11.70;70.40;;;;;;5081357;28;20012;-59
2022/04/21 08:07:55;;;;;;;26.17;19.05;;;11.80;69.60;;;;;;5081403;28;20064;-59
2022/04/21 08:10:22;;;;;;;27.08;21.17;;;11.90;69.20;;;;;;5081507;28;20108;-59
2022/04/21 08:12:52;;;;;;;28.60;21.67;;;11.90;69.50;;;;;;5081301;28;20037;-60
2022/04/21 08:15:24;;;;;;;30.00;22.08;;;11.90;69.80;;;;;;5081016;28;20392;-60
2022/04/21 08:17:51;;;;;;;29.92;21.65;;;11.90;72.60;;;;;;5080819;28;20032;-59
2022/04/21 08:20:17;;;;;;;30.55;22.27;;;12.00;72.50;;;;;;5081070;28;20032;-60
2022/04/21 08:22:44;;;;;;;30.48;22.42;;;12.10;71.10;;;;;;5079494;28;20472;-60
2022/04/21 08:33:22;;;;;;;28.98;21.00;;;12.30;71.60;;;;;;5080728;28;20043;-59
2022/04/21 08:35:50;;;;;;;29.20;21.98;;;12.40;71.80;;;;;;5079590;28;20415;-59
2022/04/21 08:38:16;;;;;;;28.10;20.95;;;12.40;71.20;;;;;;5080611;28;20052;-59
2022/04/21 08:40:51;;;;;;;28.30;21.45;;;12.60;69.80;;;;;;5080545;28;20021;-60
2022/04/21 08:43:17;;;;;;;29.67;22.15;;;12.50;71.20;;;;;;5080537;28;20040;-59
2022/04/21 08:45:44;;;;;;;27.90;22.33;;;12.60;69.70;;;;;;5080689;28;20060;-60
2022/04/21 08:48:18;;;;;;;26.00;20.75;;;12.70;70.90;;;;;;5080657;28;20384;-60
2022/04/21 08:50:45;;;;;;;30.40;21.55;;;12.70;70.90;;;;;;5080186;28;20032;-60
2022/04/21 08:53:14;;;;;;;27.48;21.27;;;12.70;70.20;;;;;;5080406;28;20028;-59
2022/04/21 08:55:40;;;;;;;28.10;20.60;;;12.80;69.60;;;;;;5080544;28;20025;-60
2022/04/21 08:58:06;;;;;;;30.70;22.38;;;12.90;70.40;;;;;;5080113;28;20488;-60
2022/04/21 09:00:32;;;;;;;27.58;21.38;;;13.00;69.90;;;;;;5080232;28;20090;-60
2022/04/21 09:02:59;;;;;;;30.27;23.30;;;13.10;69.50;;;;;;5078731;28;20055;-59
2022/04/21 09:05:29;;;;;;;30.50;24.20;;;13.30;69.60;;;;;;5080131;28;20028;-59
2022/04/21 09:07:57;;;;;;;29.45;23.27;;;13.50;69.40;;;;;;5079805;28;20035;-59
2022/04/21 09:10:24;;;;;;;30.08;22.83;;;13.70;69.00;;;;;;5080249;28;20060;-59
2022/04/21 09:12:52;;;;;;;30.08;22.83;;;13.90;69.60;;;;;;5079989;28;20035;-59
2022/04/21 09:15:20;;;;;;;27.63;21.42;;;14.00;68.90;;;;;;5080130;28;20032;-60
2022/04/21 09:17:51;;;;;;;27.05;20.85;;;14.40;68.70;;;;;;5080122;28;20035;-59
2022/04/21 09:20:23;;;;;;;26.67;19.25;;;14.60;68.00;;;;;;5079973;28;20020;-59
2022/04/21 09:22:57;;;;;;;25.17;20.48;;;14.80;68.00;;;;;;5078795;28;20488;-60
2022/04/21 09:25:28;;;;;;;;;;;15.00;67.00;;;;;;5080024;28;20089;-60
2022/04/21 09:27:55;;;;;;;26.98;20.45;;;15.30;66.90;;;;;;5079402;28;19916;-60
2022/04/21 09:30:21;;;;;;;28.33;20.63;;;15.40;65.40;;;;;;5083355;28;20035;-60
2022/04/21 09:32:57;;;;;;;30.08;23.00;;;15.70;66.90;;;;;;5098884;28;20480;-59
2022/04/21 09:35:26;;;;;;;30.27;23.67;;;15.90;65.70;;;;;;5099342;28;20028;-60
2022/04/21 09:37:56;;;;;;;31.15;23.27;;;16.20;64.60;;;;;;5099837;28;20032;-59
2022/04/21 09:40:26;;;;;;;28.77;23.33;;;16.30;65.00;;;;;;5099139;28;20020;-60
2022/04/21 09:42:54;;;;;;;29.67;22.95;;;16.50;64.50;;;;;;5099819;28;20024;-60
2022/04/21 09:48:23;;;;;;;35.08;29.42;;;16.60;63.20;;;;;;5099340;28;20039;-60
2022/04/21 09:50:53;;;;;;;32.80;23.92;;;17.10;64.10;;;;;;5099514;28;20016;-59
2022/04/21 09:53:20;;;;;;;27.13;22.42;;;17.60;64.80;;;;;;5098489;28;20035;-57
2022/04/21 09:55:49;;;;;;;34.03;29.63;;;18.20;64.50;;;;;;5099137;28;20104;-54
2022/04/21 09:58:17;;;;;;;28.95;23.13;;;18.90;63.00;;;;;;5098855;28;20032;-58
2022/04/21 10:00:43;;;;;;;36.03;30.63;;;19.30;61.50;;;;;;5099074;28;20019;-58
2022/04/21 10:03:10;;;;;;;30.98;23.80;;;19.50;60.30;;;;;;5098845;28;20476;-58
2022/04/21 10:05:38;;;;;;;31.73;24.30;;;19.70;59.30;;;;;;5099289;28;20024;-58
2022/04/21 10:08:06;;;;;;;26.42;22.52;;;19.90;61.10;;;;;;5099207;28;20032;-58
2022/04/21 10:10:33;;;;;;;26.05;21.30;;;20.30;56.60;;;;;;5098755;28;20027;-58
2022/04/21 10:13:01;;;;;;;29.25;25.35;;;20.60;55.30;;;;;;5098641;28;20027;-59
2022/04/21 10:15:30;;;;;;;29.80;25.48;;;20.80;52.90;;;;;;5098516;28;20012;-59
2022/04/21 10:17:57;;;;;;;45.58;39.30;;;21.10;58.30;;;;;;5097748;28;20108;-59
2022/04/21 10:20:24;;;;;;;36.90;32.63;;;21.50;53.50;;;;;;5098273;28;20046;-58
2022/04/21 10:22:52;;;;;;;46.22;41.28;;;21.90;50.50;;;;;;5098841;28;20418;-58
2022/04/21 10:25:19;;;;;;;41.67;37.25;;;21.80;53.00;;;;;;5098674;28;20024;-59
2022/04/21 10:27:47;;;;;;;23.10;20.60;;;22.00;49.00;;;;;;5098225;28;20102;-59
2022/04/21 10:30:25;;;;;;;39.30;35.20;;;22.40;53.10;;;;;;5098847;28;20050;-59
2022/04/21 10:33:01;;;;;;;30.70;26.95;;;22.80;49.10;;;;;;5098733;28;20031;-59
2022/04/21 10:35:29;;;;;;;32.50;28.02;;;22.80;47.10;;;;;;5098325;28;20102;-59
2022/04/21 10:38:19;;;;;;;21.90;19.40;;;23.00;48.80;;;;;;5098388;28;20024;-59
2022/04/21 10:41:03;;;;;;;23.85;20.38;;;23.20;48.00;;;;;;5094758;28;20635;-60
2022/04/21 10:43:47;;;;;;;26.15;21.00;;;23.40;47.10;;;;;;5098427;28;20031;-60
2022/04/21 10:46:21;;;;;;;25.40;20.75;;;23.70;48.30;;;;;;5098257;28;20021;-60
2022/04/21 10:48:48;;;;;;;24.25;20.50;;;24.00;44.60;;;;;;5098175;28;20036;-60
2022/04/21 10:57:12;;;;;;;23.02;20.50;;;24.20;43.00;;;;;;5098241;28;20020;-59
2022/04/21 10:57:17;;;;;;;22.50;18.80;;;24.60;45.40;;;;;;5098225;28;20067;-59
2022/04/21 11:00:05;;;;;;;21.80;19.50;;;24.80;43.60;;;;;;5098293;28;20028;-59
2022/04/21 11:02:46;;;;;;;23.10;20.70;;;25.00;38.80;;;;;;5097714;28;20509;-59
2022/04/21 11:05:50;;;;;;;24.73;20.88;;;25.10;39.80;;;;;;5097847;28;20396;-59
2022/04/21 11:08:18;;;;;;;23.70;19.98;;;25.00;41.70;;;;;;5085605;28;20036;-59
2022/04/21 11:10:44;;;;;;;20.63;18.40;;;25.00;41.50;;;;;;5097436;28;20028;-59
2022/04/21 11:13:12;;;;;;;25.23;21.83;;;25.60;44.90;;;;;;5097658;28;20017;-59
2022/04/21 11:15:53;;;;;;;24.00;21.38;;;25.80;38.20;;;;;;5097507;28;20028;-59
2022/04/21 11:18:37;;;;;;;23.88;21.25;;;25.90;38.60;;;;;;5097511;28;20020;-59
2022/04/21 11:21:26;;;;;;;23.23;20.35;;;25.90;38.00;;;;;;5097911;28;20059;-59
2022/04/21 11:23:52;;;;;;;22.58;20.20;;;26.20;39.60;;;;;;5097690;28;20023;-59
2022/04/21 11:26:25;;;;;;;21.52;19.33;;;26.00;38.60;;;;;;5097618;28;20121;-59
2022/04/21 11:28:51;;;;;;;22.03;19.73;;;26.30;39.90;;;;;;5097039;28;20056;-59
2022/04/21 11:31:20;;;;;;;21.85;19.55;;;26.50;40.40;;;;;;5095672;28;20594;-59
2022/04/21 11:33:47;;;;;;;22.05;18.55;;;26.60;36.60;;;;;;5097591;28;20092;-59
2022/04/21 11:36:14;;;;;;;23.67;20.50;;;26.70;38.00;;;;;;5097451;28;20111;-59
2022/04/21 11:38:44;;;;;;;22.92;20.02;;;26.80;36.40;;;;;;5097218;28;20020;-59
2022/04/21 11:41:13;;;;;;;22.13;19.55;;;26.80;34.10;;;;;;5097531;28;20152;-59
2022/04/21 11:43:46;;;;;;;22.05;19.65;;;26.80;37.50;;;;;;5097551;28;20044;-59
2022/04/21 11:46:13;;;;;;;23.20;20.35;;;26.60;36.00;;;;;;5097417;28;20027;-59
2022/04/21 11:48:40;;;;;;;22.08;18.73;;;26.30;32.90;;;;;;5097060;28;20108;-58
2022/04/21 11:51:11;;;;;;;24.05;21.52;;;26.40;35.30;;;;;;5096971;28;20119;-59
2022/04/21 11:53:42;;;;;;;23.83;21.25;;;26.20;35.40;;;;;;5097265;28;20529;-59
2022/04/21 11:56:10;;;;;;;26.40;21.10;;;26.20;36.40;;;;;;5097472;28;20044;-59
2022/04/21 11:58:38;;;;;;;22.73;19.58;;;26.00;35.00;;;;;;5097300;28;20035;-58
2022/04/21 12:06:58;;;;;;;24.13;21.25;;;26.80;36.30;;;;;;5097360;28;20051;-59
2022/04/21 12:09:34;;;;;;;22.02;19.48;;;26.60;37.10;;;;;;5088314;28;20035;-59
2022/04/21 12:12:02;;;;;;;24.45;19.80;;;26.40;36.10;;;;;;5086540;28;20020;-59
2022/04/21 12:14:29;;;;;;;21.60;19.30;;;26.30;33.30;;;;;;5087084;28;20032;-59
2022/04/21 12:17:00;;;;;;;22.35;20.05;;;26.20;34.10;;;;;;5088263;28;20021;-59
2022/04/21 12:19:32;;;;;;;27.70;20.60;;;26.30;36.50;;;;;;5096758;28;20039;-59
2022/04/21 12:22:18;;;;;;;23.25;20.52;;;26.20;34.50;;;;;;5097173;28;20020;-59
2022/04/21 12:24:44;;;;;;;24.75;20.08;;;25.90;35.70;;;;;;5097155;28;20170;-58
2022/04/21 12:27:29;;;;;;;22.83;18.98;;;25.60;34.50;;;;;;5096932;28;20090;-58
2022/04/21 12:30:05;;;;;;;22.65;18.92;;;25.70;35.70;;;;;;5097376;28;20032;-58
2022/04/21 12:32:36;;;;;;;24.95;19.42;;;25.70;36.50;;;;;;5096999;28;20020;-59
2022/04/21 12:35:06;;;;;;;24.10;19.25;;;25.50;33.60;;;;;;5097303;28;20593;-59
2022/04/21 12:37:42;;;;;;;23.08;18.58;;;25.50;33.80;;;;;;5096558;28;20434;-59
2022/04/21 12:40:13;;;;;;;26.13;19.55;;;26.00;35.40;;;;;;5096878;28;20032;-59
2022/04/21 12:42:40;;;;;;;22.95;18.45;;;26.20;34.50;;;;;;5098611;28;20028;-59
2022/04/21 12:45:07;;;;;;;24.88;18.15;;;26.40;32.70;;;;;;5100272;28;20380;-58
2022/04/21 12:47:54;;;;;;;26.25;18.45;;;26.70;33.10;;;;;;5100367;28;20022;-58
2022/04/21 12:50:23;;;;;;;23.10;17.40;;;26.90;35.50;;;;;;5100045;28;20024;-58
2022/04/21 12:52:52;;;;;;;23.23;17.15;;;27.40;33.60;;;;;;5100442;28;20467;-57
2022/04/21 12:55:21;;;;;;;22.80;17.92;;;27.80;34.10;;;;;;5100643;28;20422;-58
2022/04/21 12:57:59;;;;;;;20.92;16.73;;;28.10;32.80;;;;;;5099609;28;20396;-58
2022/04/21 13:00:26;;;;;;;24.23;18.20;;;28.20;33.30;;;;;;5100205;28;20036;-58
2022/04/21 13:02:51;;;;;;;24.63;18.15;;;28.50;31.30;;;;;;5100511;28;20020;-58
2022/04/21 13:05:17;;;;;;;22.27;16.65;;;28.60;31.40;;;;;;5100419;28;20027;-57
2022/04/21 13:07:43;;;;;;;25.83;18.05;;;28.50;29.80;;;;;;5100632;28;20164;-56
2022/04/21 13:10:09;;;;;;;23.52;17.85;;;28.50;30.30;;;;;;5100548;28;20024;-56
2022/04/21 13:12:35;;;;;;;24.13;18.33;;;28.60;29.60;;;;;;5100742;28;20473;-56
2022/04/21 13:15:04;;;;;;;22.45;17.23;;;28.60;30.00;;;;;;5100667;28;20046;-57
2022/04/21 13:17:30;;;;;;;22.63;18.30;;;28.60;30.10;;;;;;5099975;28;20115;-58
2022/04/21 13:19:56;;;;;;;20.60;15.38;;;28.50;29.40;;;;;;5099985;28;20503;-57
2022/04/21 13:22:22;;;;;;;22.20;16.33;;;28.60;31.70;;;;;;5100117;28;20047;-58